createdAt,value
2016-09-03T00:00:56.202Z,22.3
2016-09-03T00:01:56.214Z,22.3
2016-09-03T00:02:56.246Z,22.28
2016-09-03T00:03:56.269Z,22.26
2016-09-03T00:04:56.297Z,22.26
2016-09-03T00:05:56.322Z,22.28
2016-09-03T00:06:56.351Z,22.2
2016-09-03T00:07:56.375Z,22.25
2016-09-03T00:08:56.402Z,22.23
2016-09-03T00:09:56.477Z,22.22
2016-09-03T00:10:56.461Z,22.18
2016-09-03T00:11:56.489Z,22.17
2016-09-03T00:12:56.508Z,22.13
2016-09-03T00:13:56.533Z,22.13
2016-09-03T00:14:56.564Z,22.14
2016-09-03T00:15:56.583Z,22.14
2016-09-03T00:16:57.319Z,22.17
2016-09-03T00:17:56.643Z,22.13
2016-09-03T00:18:56.659Z,22.2
2016-09-03T00:19:56.687Z,22.14
2016-09-03T00:20:56.719Z,22.15
2016-09-03T00:21:56.743Z,22.07
2016-09-03T00:22:56.820Z,22.07
2016-09-03T00:23:56.801Z,21.99
2016-09-03T00:24:56.822Z,22.02
2016-09-03T00:25:56.849Z,22.07
2016-09-03T00:26:56.873Z,22.02
2016-09-03T00:27:56.898Z,22.06
2016-09-03T00:28:56.928Z,22.02
2016-09-03T00:29:56.945Z,21.98
2016-09-03T00:30:56.979Z,21.99
2016-09-03T00:31:57.000Z,22.06
2016-09-03T00:32:57.035Z,22.04
2016-09-03T00:33:57.055Z,22.02
2016-09-03T00:34:57.084Z,22.02
2016-09-03T00:35:57.104Z,21.95
2016-09-03T00:36:57.138Z,21.95
2016-09-03T00:37:57.157Z,21.93
2016-09-03T00:38:57.181Z,22.02
2016-09-03T00:39:57.209Z,21.88
2016-09-03T00:40:57.231Z,21.91
2016-09-03T00:41:57.271Z,21.98
2016-09-03T00:42:57.296Z,21.92
2016-09-03T00:43:58.015Z,21.95
2016-09-03T00:44:57.339Z,21.89
2016-09-03T00:45:57.365Z,21.83
2016-09-03T00:46:57.392Z,21.82
2016-09-03T00:47:57.417Z,21.91
2016-09-03T00:48:57.452Z,21.82
2016-09-03T00:49:57.517Z,21.91
2016-09-03T00:50:57.499Z,21.85
2016-09-03T00:51:57.633Z,21.8
2016-09-03T00:52:57.634Z,21.88
2016-09-03T00:53:57.671Z,21.79
2016-09-03T00:54:57.702Z,21.83
2016-09-03T00:55:57.844Z,21.76
2016-09-03T00:56:57.851Z,21.8
2016-09-03T00:57:57.876Z,21.77
2016-09-03T00:58:57.876Z,21.77
2016-09-03T00:59:57.871Z,21.77
2016-09-03T01:00:57.884Z,21.79
2016-09-03T01:01:57.933Z,21.69
2016-09-03T01:02:57.899Z,21.82
2016-09-03T01:03:57.941Z,21.72
2016-09-03T01:04:57.948Z,21.8
2016-09-03T01:05:57.960Z,21.67
2016-09-03T01:06:58.004Z,21.72
2016-09-03T01:07:58.003Z,21.72
2016-09-03T01:08:58.034Z,21.73
2016-09-03T01:09:58.109Z,21.73
2016-09-03T01:10:58.060Z,21.67
2016-09-03T01:11:58.060Z,21.67
2016-09-03T01:12:58.079Z,21.69
2016-09-03T01:13:58.082Z,21.64
2016-09-03T01:14:58.113Z,21.67
2016-09-03T01:15:58.135Z,21.7
2016-09-03T01:16:58.158Z,21.7
2016-09-03T01:17:58.185Z,21.69
2016-09-03T01:18:58.214Z,21.57
2016-09-03T01:19:58.258Z,21.69
2016-09-03T01:20:58.264Z,21.57
2016-09-03T01:21:58.286Z,21.58
2016-09-03T01:22:58.317Z,21.58
2016-09-03T01:23:58.342Z,21.58
2016-09-03T01:24:58.389Z,21.58
2016-09-03T01:25:58.393Z,21.66
2016-09-03T01:26:58.421Z,21.6
2016-09-03T01:27:58.445Z,21.61
2016-09-03T01:28:58.473Z,21.62
2016-09-03T01:29:58.494Z,21.58
2016-09-03T01:30:58.521Z,21.57
2016-09-03T01:31:58.648Z,21.58
2016-09-03T01:32:58.571Z,21.5
2016-09-03T01:33:59.301Z,21.55
2016-09-03T01:34:58.622Z,21.62
2016-09-03T01:35:58.655Z,21.58
2016-09-03T01:36:58.671Z,21.58
2016-09-03T01:37:58.713Z,21.54
2016-09-03T01:38:58.723Z,21.45
2016-09-03T01:39:58.751Z,21.55
2016-09-03T01:40:58.776Z,21.51
2016-09-03T01:41:58.800Z,21.55
2016-09-03T01:42:58.828Z,21.43
2016-09-03T01:43:58.864Z,21.52
2016-09-03T01:44:58.873Z,21.46
2016-09-03T01:45:58.901Z,21.48
2016-09-03T01:46:58.937Z,21.45
2016-09-03T01:47:58.955Z,21.45
2016-09-03T01:48:58.980Z,21.39
2016-09-03T01:49:59.004Z,21.48
2016-09-03T01:50:59.031Z,21.45
2016-09-03T01:51:59.057Z,21.42
2016-09-03T01:52:59.083Z,21.4
2016-09-03T01:53:59.110Z,21.42
2016-09-03T01:54:59.148Z,21.33
2016-09-03T01:55:59.156Z,21.36
2016-09-03T01:56:59.185Z,21.43
2016-09-03T01:57:59.210Z,21.45
2016-09-03T01:58:59.283Z,21.32
2016-09-03T01:59:59.261Z,21.36
2016-09-03T02:00:59.290Z,21.35
2016-09-03T02:01:59.315Z,21.4
2016-09-03T02:02:59.340Z,21.4
2016-09-03T02:03:59.364Z,21.33
2016-09-03T02:04:59.388Z,21.4
2016-09-03T02:05:59.411Z,21.4
2016-09-03T02:06:59.437Z,21.35
2016-09-03T02:07:59.465Z,21.42
2016-09-03T02:08:59.492Z,21.4
2016-09-03T02:09:59.510Z,21.35
2016-09-03T02:10:59.553Z,21.42
2016-09-03T02:11:59.565Z,21.45
2016-09-03T02:12:59.601Z,21.39
2016-09-03T02:13:59.619Z,21.42
2016-09-03T02:14:59.641Z,21.4
2016-09-03T02:15:59.666Z,21.39
2016-09-03T02:16:59.690Z,21.37
2016-09-03T02:17:59.713Z,21.39
2016-09-03T02:18:59.744Z,21.32
2016-09-03T02:19:59.767Z,21.42
2016-09-03T02:20:59.792Z,21.33
2016-09-03T02:21:59.827Z,21.3
2016-09-03T02:22:59.853Z,21.33
2016-09-03T02:23:59.870Z,21.3
2016-09-03T02:24:59.893Z,21.3
2016-09-03T02:25:59.926Z,21.29
2016-09-03T02:26:59.947Z,21.3
2016-09-03T02:27:59.984Z,21.32
2016-09-03T02:28:59.996Z,21.36
2016-09-03T02:30:00.021Z,21.27
2016-09-03T02:31:00.048Z,21.29
2016-09-03T02:32:00.072Z,21.3
2016-09-03T02:33:00.102Z,21.35
2016-09-03T02:34:00.137Z,21.27
2016-09-03T02:35:00.146Z,21.29
2016-09-03T02:36:00.172Z,21.25
2016-09-03T02:37:00.902Z,21.3
2016-09-03T02:38:00.227Z,21.29
2016-09-03T02:39:00.267Z,21.25
2016-09-03T02:40:00.275Z,21.25
2016-09-03T02:41:00.296Z,21.24
2016-09-03T02:42:00.338Z,21.24
2016-09-03T02:43:00.355Z,21.25
2016-09-03T02:44:00.376Z,21.22
2016-09-03T02:45:00.400Z,21.27
2016-09-03T02:46:00.428Z,21.22
2016-09-03T02:47:00.454Z,21.3
2016-09-03T02:48:00.476Z,21.21
2016-09-03T02:49:00.497Z,21.2
2016-09-03T02:50:00.532Z,21.27
2016-09-03T02:51:00.602Z,21.25
2016-09-03T02:52:01.277Z,21.24
2016-09-03T02:53:00.608Z,21.22
2016-09-03T02:54:00.630Z,21.21
2016-09-03T02:55:00.660Z,21.22
2016-09-03T02:56:00.687Z,21.21
2016-09-03T02:57:00.709Z,21.2
2016-09-03T02:58:00.726Z,21.24
2016-09-03T02:59:00.759Z,21.17
2016-09-03T03:00:00.781Z,21.18
2016-09-03T03:01:00.815Z,21.17
2016-09-03T03:02:00.830Z,21.18
2016-09-03T03:03:01.561Z,21.21
2016-09-03T03:04:00.879Z,21.25
2016-09-03T03:05:00.905Z,21.18
2016-09-03T03:06:00.937Z,21.18
2016-09-03T03:07:00.951Z,21.18
2016-09-03T03:08:00.984Z,21.2
2016-09-03T03:09:01.003Z,21.12
2016-09-03T03:10:01.039Z,21.15
2016-09-03T03:11:01.053Z,21.14
2016-09-03T03:12:01.092Z,21.15
2016-09-03T03:13:01.105Z,21.12
2016-09-03T03:14:01.136Z,21.12
2016-09-03T03:15:01.157Z,21.09
2016-09-03T03:16:01.185Z,21.12
2016-09-03T03:17:01.208Z,21.11
2016-09-03T03:18:01.239Z,21.17
2016-09-03T03:19:01.254Z,21.12
2016-09-03T03:20:01.284Z,21.12
2016-09-03T03:21:01.309Z,21.15
2016-09-03T03:22:01.334Z,21.03
2016-09-03T03:23:01.361Z,21.12
2016-09-03T03:24:01.386Z,21.03
2016-09-03T03:25:01.407Z,21.09
2016-09-03T03:26:01.432Z,21.06
2016-09-03T03:27:01.458Z,21.06
2016-09-03T03:28:01.501Z,21.03
2016-09-03T03:29:01.508Z,21.09
2016-09-03T03:30:01.589Z,21.02
2016-09-03T03:31:01.564Z,20.99
2016-09-03T03:32:01.582Z,21
2016-09-03T03:33:01.609Z,21.07
2016-09-03T03:34:01.635Z,20.99
2016-09-03T03:35:01.657Z,20.99
2016-09-03T03:36:01.685Z,21
2016-09-03T03:37:01.709Z,21.05
2016-09-03T03:38:01.730Z,21.03
2016-09-03T03:39:01.762Z,20.97
2016-09-03T03:40:01.793Z,21.02
2016-09-03T03:41:01.814Z,21.05
2016-09-03T03:42:01.834Z,20.97
2016-09-03T03:43:01.865Z,21.06
2016-09-03T03:44:01.888Z,21.02
2016-09-03T03:45:01.913Z,21
2016-09-03T03:46:01.932Z,21.06
2016-09-03T03:47:01.986Z,20.93
2016-09-03T03:48:01.985Z,20.96
2016-09-03T03:49:02.012Z,20.95
2016-09-03T03:50:02.037Z,20.85
2016-09-03T03:51:02.062Z,20.9
2016-09-03T03:52:02.084Z,20.95
2016-09-03T03:53:02.114Z,20.95
2016-09-03T03:54:02.139Z,20.92
2016-09-03T03:55:02.165Z,20.92
2016-09-03T03:56:02.194Z,20.88
2016-09-03T03:57:02.217Z,20.93
2016-09-03T03:58:02.286Z,20.92
2016-09-03T03:59:02.262Z,20.95
2016-09-03T04:00:02.283Z,20.93
2016-09-03T04:01:02.312Z,20.92
2016-09-03T04:02:02.336Z,20.96
2016-09-03T04:03:02.366Z,20.92
2016-09-03T04:04:03.203Z,20.95
2016-09-03T04:05:02.413Z,20.85
2016-09-03T04:06:02.447Z,20.92
2016-09-03T04:07:02.471Z,20.93
2016-09-03T04:08:03.342Z,20.87
2016-09-03T04:09:02.514Z,20.87
2016-09-03T04:10:02.538Z,20.96
2016-09-03T04:11:02.559Z,20.84
2016-09-03T04:12:02.593Z,20.85
2016-09-03T04:13:03.376Z,20.87
2016-09-03T04:14:02.716Z,20.8
2016-09-03T04:15:02.664Z,20.84
2016-09-03T04:16:02.697Z,20.87
2016-09-03T04:17:02.717Z,20.81
2016-09-03T04:18:02.738Z,20.82
2016-09-03T04:19:02.762Z,20.85
2016-09-03T04:20:02.791Z,20.82
2016-09-03T04:21:02.810Z,20.82
2016-09-03T04:22:02.835Z,20.75
2016-09-03T04:23:02.870Z,20.81
2016-09-03T04:24:02.909Z,20.8
2016-09-03T04:25:02.911Z,20.81
2016-09-03T04:26:02.937Z,20.92
2016-09-03T04:27:02.961Z,20.88
2016-09-03T04:28:02.993Z,20.8
2016-09-03T04:29:03.006Z,20.8
2016-09-03T04:30:03.051Z,20.87
2016-09-03T04:31:03.063Z,20.82
2016-09-03T04:32:03.086Z,20.77
2016-09-03T04:33:03.112Z,20.78
2016-09-03T04:34:03.155Z,20.75
2016-09-03T04:35:03.161Z,20.81
2016-09-03T04:36:03.194Z,20.81
2016-09-03T04:37:03.207Z,20.81
2016-09-03T04:38:03.236Z,20.78
2016-09-03T04:39:03.260Z,20.81
2016-09-03T04:40:03.281Z,20.75
2016-09-03T04:41:03.314Z,20.77
2016-09-03T04:42:03.357Z,20.82
2016-09-03T04:43:03.367Z,20.77
2016-09-03T04:44:03.383Z,20.77
2016-09-03T04:45:03.411Z,20.75
2016-09-03T04:46:03.434Z,20.77
2016-09-03T04:47:03.457Z,20.72
2016-09-03T04:48:03.492Z,20.75
2016-09-03T04:49:03.508Z,20.77
2016-09-03T04:50:03.542Z,20.78
2016-09-03T04:51:03.554Z,20.75
2016-09-03T04:52:03.597Z,20.8
2016-09-03T04:53:04.371Z,20.75
2016-09-03T04:54:03.631Z,20.78
2016-09-03T04:55:03.658Z,20.74
2016-09-03T04:56:03.689Z,20.75
2016-09-03T04:57:04.436Z,20.75
2016-09-03T04:58:03.730Z,20.74
2016-09-03T04:59:03.753Z,20.75
2016-09-03T05:00:03.804Z,20.78
2016-09-03T05:01:03.805Z,20.78
2016-09-03T05:02:03.826Z,20.72
2016-09-03T05:03:03.859Z,20.72
2016-09-03T05:04:03.886Z,20.69
2016-09-03T05:05:03.904Z,20.69
2016-09-03T05:06:03.929Z,20.69
2016-09-03T05:07:03.955Z,20.74
2016-09-03T05:08:03.986Z,20.72
2016-09-03T05:09:04.111Z,20.69
2016-09-03T05:10:04.120Z,20.72
2016-09-03T05:11:04.129Z,20.72
2016-09-03T05:12:04.138Z,20.74
2016-09-03T05:13:04.137Z,20.72
2016-09-03T05:14:04.146Z,20.7
2016-09-03T05:15:04.157Z,20.69
2016-09-03T05:16:04.175Z,20.7
2016-09-03T05:17:04.309Z,20.72
2016-09-03T05:18:04.330Z,20.72
2016-09-03T05:19:04.339Z,20.69
2016-09-03T05:20:04.349Z,20.7
2016-09-03T05:21:04.359Z,20.7
2016-09-03T05:22:04.396Z,20.74
2016-09-03T05:23:04.407Z,20.75
2016-09-03T05:24:04.414Z,20.69
2016-09-03T05:25:04.422Z,20.66
2016-09-03T05:26:04.432Z,20.75
2016-09-03T05:27:04.455Z,20.74
2016-09-03T05:28:04.485Z,20.72
2016-09-03T05:29:04.509Z,20.6
2016-09-03T05:30:04.527Z,20.62
2016-09-03T05:31:04.547Z,20.67
2016-09-03T05:32:04.595Z,20.65
2016-09-03T05:33:04.597Z,20.67
2016-09-03T05:34:04.620Z,20.62
2016-09-03T05:35:04.650Z,20.63
2016-09-03T05:36:04.682Z,20.7
2016-09-03T05:37:04.696Z,20.62
2016-09-03T05:38:04.741Z,20.62
2016-09-03T05:39:04.799Z,20.66
2016-09-03T05:40:04.786Z,20.78
2016-09-03T05:41:04.798Z,20.67
2016-09-03T05:42:04.820Z,20.69
2016-09-03T05:43:04.848Z,20.7
2016-09-03T05:44:04.872Z,20.72
2016-09-03T05:45:04.901Z,20.7
2016-09-03T05:46:04.925Z,20.74
2016-09-03T05:47:04.949Z,20.74
2016-09-03T05:48:04.984Z,20.75
2016-09-03T05:49:04.995Z,20.74
2016-09-03T05:50:05.018Z,20.74
2016-09-03T05:51:05.044Z,20.72
2016-09-03T05:52:05.081Z,20.74
2016-09-03T05:53:05.104Z,20.74
2016-09-03T05:54:05.127Z,20.82
2016-09-03T05:55:05.144Z,20.78
2016-09-03T05:56:05.170Z,20.77
2016-09-03T05:57:05.199Z,20.77
2016-09-03T05:58:05.221Z,20.75
2016-09-03T05:59:05.254Z,20.8
2016-09-03T06:00:05.289Z,20.81
2016-09-03T06:01:05.292Z,20.85
2016-09-03T06:02:05.337Z,20.87
2016-09-03T06:03:05.339Z,20.8
2016-09-03T06:04:05.362Z,20.81
2016-09-03T06:05:05.391Z,20.87
2016-09-03T06:06:05.422Z,20.84
2016-09-03T06:07:05.440Z,20.85
2016-09-03T06:08:05.480Z,20.85
2016-09-03T06:09:05.488Z,20.8
2016-09-03T06:10:05.519Z,20.85
2016-09-03T06:11:05.539Z,20.84
2016-09-03T06:12:05.560Z,20.84
2016-09-03T06:13:05.592Z,20.88
2016-09-03T06:14:05.625Z,20.82
2016-09-03T06:15:05.635Z,20.96
2016-09-03T06:16:05.662Z,20.96
2016-09-03T06:17:05.683Z,20.9
2016-09-03T06:18:05.710Z,20.95
2016-09-03T06:19:05.735Z,20.95
2016-09-03T06:20:05.763Z,20.9
2016-09-03T06:21:05.786Z,20.95
2016-09-03T06:22:05.810Z,21.02
2016-09-03T06:23:05.833Z,21.03
2016-09-03T06:24:05.860Z,21.02
2016-09-03T06:25:05.884Z,21.06
2016-09-03T06:26:05.910Z,21.03
2016-09-03T06:27:05.936Z,21.05
2016-09-03T06:28:05.973Z,21.02
2016-09-03T06:29:06.098Z,21.03
2016-09-03T06:30:06.101Z,21.06
2016-09-03T06:31:06.130Z,21.12
2016-09-03T06:32:06.148Z,21.12
2016-09-03T06:33:06.311Z,21.15
2016-09-03T06:34:06.318Z,21.15
2016-09-03T06:35:06.333Z,21.15
2016-09-03T06:36:06.343Z,21.21
2016-09-03T06:37:06.341Z,21.21
2016-09-03T06:38:06.391Z,21.24
2016-09-03T06:39:06.404Z,21.25
2016-09-03T06:40:06.411Z,21.21
2016-09-03T06:41:06.407Z,21.25
2016-09-03T06:42:06.454Z,21.25
2016-09-03T06:43:06.425Z,21.35
2016-09-03T06:44:06.436Z,21.32
2016-09-03T06:45:06.481Z,21.29
2016-09-03T06:46:06.479Z,21.35
2016-09-03T06:47:06.513Z,21.39
2016-09-03T06:48:06.519Z,21.25
2016-09-03T06:49:06.534Z,21.4
2016-09-03T06:50:06.538Z,21.42
2016-09-03T06:51:06.535Z,21.45
2016-09-03T06:52:06.601Z,21.43
2016-09-03T06:53:06.587Z,21.51
2016-09-03T06:54:06.606Z,21.54
2016-09-03T06:55:06.632Z,21.51
2016-09-03T06:56:06.660Z,21.5
2016-09-03T06:57:06.688Z,21.6
2016-09-03T06:58:06.717Z,21.61
2016-09-03T06:59:06.731Z,21.6
2016-09-03T07:00:06.757Z,21.64
2016-09-03T07:01:07.492Z,21.7
2016-09-03T07:02:06.805Z,21.7
2016-09-03T07:03:06.837Z,21.73
2016-09-03T07:04:06.871Z,21.77
2016-09-03T07:05:06.879Z,21.85
2016-09-03T07:06:06.908Z,21.83
2016-09-03T07:07:06.930Z,21.83
2016-09-03T07:08:06.961Z,21.83
2016-09-03T07:09:06.980Z,21.89
2016-09-03T07:10:07.011Z,21.92
2016-09-03T07:11:07.029Z,21.91
2016-09-03T07:12:07.057Z,21.96
2016-09-03T07:13:07.084Z,22.04
2016-09-03T07:14:07.108Z,22.06
2016-09-03T07:15:07.140Z,22
2016-09-03T07:16:07.162Z,22.02
2016-09-03T07:17:07.187Z,22.15
2016-09-03T07:18:07.225Z,22.1
2016-09-03T07:19:07.231Z,22.11
2016-09-03T07:20:07.259Z,22.17
2016-09-03T07:21:07.290Z,22.26
2016-09-03T07:22:07.308Z,22.26
2016-09-03T07:23:07.337Z,22.28
2016-09-03T07:24:07.359Z,22.28
2016-09-03T07:25:07.501Z,22.36
2016-09-03T07:26:07.411Z,22.35
2016-09-03T07:27:07.548Z,22.43
2016-09-03T07:28:07.466Z,22.39
2016-09-03T07:29:07.533Z,22.5
2016-09-03T07:30:07.512Z,22.47
2016-09-03T07:31:07.648Z,22.53
2016-09-03T07:32:07.563Z,22.59
2016-09-03T07:33:07.589Z,22.62
2016-09-03T07:34:07.614Z,22.65
2016-09-03T07:35:07.641Z,22.63
2016-09-03T07:36:07.664Z,22.68
2016-09-03T07:37:07.752Z,22.63
2016-09-03T07:38:07.711Z,22.72
2016-09-03T07:39:07.744Z,22.83
2016-09-03T07:40:07.767Z,22.9
2016-09-03T07:41:07.795Z,22.87
2016-09-03T07:42:07.817Z,22.9
2016-09-03T07:43:07.839Z,22.96
2016-09-03T07:44:07.863Z,22.99
2016-09-03T07:45:07.890Z,22.93
2016-09-03T07:46:07.916Z,22.98
2016-09-03T07:47:07.945Z,23.17
2016-09-03T07:48:07.969Z,23.13
2016-09-03T07:49:07.994Z,23.12
2016-09-03T07:50:08.019Z,23.2
2016-09-03T07:51:08.050Z,23.25
2016-09-03T07:52:08.069Z,23.24
2016-09-03T07:53:08.146Z,23.28
2016-09-03T07:54:08.124Z,23.34
2016-09-03T07:55:08.260Z,23.39
2016-09-03T07:56:08.171Z,23.51
2016-09-03T07:57:08.202Z,23.5
2016-09-03T07:58:08.226Z,23.5
2016-09-03T07:59:08.466Z,23.56
2016-09-03T08:00:08.278Z,23.62
2016-09-03T08:01:08.301Z,23.71
2016-09-03T08:02:08.404Z,23.76
2016-09-03T08:03:08.480Z,23.77
2016-09-03T08:04:08.378Z,23.77
2016-09-03T08:05:08.407Z,23.69
2016-09-03T08:06:08.431Z,23.84
2016-09-03T08:07:08.505Z,23.91
2016-09-03T08:08:08.485Z,23.91
2016-09-03T08:09:08.505Z,23.99
2016-09-03T08:10:09.333Z,24.02
2016-09-03T08:11:08.560Z,24.1
2016-09-03T08:12:08.585Z,24.18
2016-09-03T08:13:08.613Z,24.16
2016-09-03T08:14:08.655Z,24.18
2016-09-03T08:15:08.662Z,24.24
2016-09-03T08:16:08.689Z,24.29
2016-09-03T08:17:08.724Z,24.29
2016-09-03T08:18:08.741Z,24.36
2016-09-03T08:19:08.782Z,24.47
2016-09-03T08:20:08.796Z,24.38
2016-09-03T08:21:08.931Z,24.55
2016-09-03T08:22:08.849Z,24.47
2016-09-03T08:23:08.873Z,24.65
2016-09-03T08:24:08.902Z,24.57
2016-09-03T08:25:09.038Z,24.61
2016-09-03T08:26:08.954Z,24.68
2016-09-03T08:27:08.981Z,24.65
2016-09-03T08:28:09.014Z,24.76
2016-09-03T08:29:09.031Z,24.7
2016-09-03T08:30:09.065Z,24.78
2016-09-03T08:31:09.085Z,24.76
2016-09-03T08:32:09.290Z,24.86
2016-09-03T08:33:09.137Z,24.84
2016-09-03T08:34:09.163Z,24.93
2016-09-03T08:35:09.193Z,24.96
2016-09-03T08:36:09.217Z,25.03
2016-09-03T08:37:09.243Z,25.04
2016-09-03T08:38:09.283Z,25.11
2016-09-03T08:39:09.545Z,25.11
2016-09-03T08:40:09.331Z,25.11
2016-09-03T08:41:09.401Z,25.16
2016-09-03T08:42:09.380Z,25.14
2016-09-03T08:43:09.405Z,25.26
2016-09-03T08:44:09.441Z,25.23
2016-09-03T08:45:10.162Z,25.29
2016-09-03T08:46:09.485Z,25.33
2016-09-03T08:47:09.515Z,25.43
2016-09-03T08:48:09.538Z,25.41
2016-09-03T08:49:09.572Z,25.55
2016-09-03T08:50:09.591Z,25.5
2016-09-03T08:51:09.628Z,25.6
2016-09-03T08:52:09.646Z,25.66
2016-09-03T08:53:09.737Z,25.62
2016-09-03T08:54:09.704Z,25.69
2016-09-03T08:55:09.779Z,25.72
2016-09-03T08:56:09.757Z,25.77
2016-09-03T08:57:09.782Z,25.85
2016-09-03T08:58:09.805Z,25.93
2016-09-03T08:59:09.833Z,25.93
2016-09-03T09:00:09.864Z,25.99
2016-09-03T09:01:09.894Z,25.99
2016-09-03T09:02:09.926Z,26.07
2016-09-03T09:03:10.014Z,26.15
2016-09-03T09:04:09.980Z,26.09
2016-09-03T09:05:10.007Z,26.16
2016-09-03T09:06:10.024Z,26.19
2016-09-03T09:07:10.057Z,26.1
2016-09-03T09:08:10.092Z,26.18
2016-09-03T09:09:10.114Z,26.28
2016-09-03T09:10:10.132Z,26.21
2016-09-03T09:11:10.166Z,26.33
2016-09-03T09:12:10.190Z,26.31
2016-09-03T09:13:10.225Z,26.28
2016-09-03T09:14:10.254Z,26.38
2016-09-03T09:15:10.272Z,26.43
2016-09-03T09:16:10.301Z,26.44
2016-09-03T09:17:10.325Z,26.48
2016-09-03T09:18:10.451Z,26.52
2016-09-03T09:19:10.424Z,26.59
2016-09-03T09:20:10.409Z,26.63
2016-09-03T09:21:10.440Z,26.68
2016-09-03T09:22:10.471Z,26.81
2016-09-03T09:23:10.492Z,26.88
2016-09-03T09:24:10.520Z,26.81
2016-09-03T09:25:10.547Z,26.95
2016-09-03T09:26:10.573Z,26.93
2016-09-03T09:27:10.609Z,26.9
2016-09-03T09:28:10.636Z,27.03
2016-09-03T09:29:10.671Z,27.05
2016-09-03T09:30:10.695Z,27.1
2016-09-03T09:31:10.724Z,27.17
2016-09-03T09:32:10.741Z,27.17
2016-09-03T09:33:10.774Z,27.26
2016-09-03T09:34:10.797Z,27.35
2016-09-03T09:35:11.529Z,27.27
2016-09-03T09:36:10.853Z,27.48
2016-09-03T09:37:10.880Z,27.4
2016-09-03T09:38:10.913Z,27.49
2016-09-03T09:39:11.653Z,27.51
2016-09-03T09:40:10.968Z,27.52
2016-09-03T09:41:10.995Z,27.51
2016-09-03T09:42:11.028Z,27.49
2016-09-03T09:43:11.105Z,27.49
2016-09-03T09:44:11.080Z,27.54
2016-09-03T09:45:11.104Z,27.55
2016-09-03T09:46:11.138Z,27.6
2016-09-03T09:47:11.165Z,27.73
2016-09-03T09:48:11.202Z,27.7
2016-09-03T09:49:11.220Z,27.8
2016-09-03T09:50:11.957Z,27.85
2016-09-03T09:51:11.277Z,27.89
2016-09-03T09:52:11.498Z,27.98
2016-09-03T09:53:11.336Z,28
2016-09-03T09:54:11.368Z,28.07
2016-09-03T09:55:11.399Z,28.15
2016-09-03T09:56:11.416Z,28.26
2016-09-03T09:57:11.456Z,28.27
2016-09-03T09:58:11.476Z,28.3
2016-09-03T09:59:11.513Z,28.35
2016-09-03T10:00:11.537Z,28.38
2016-09-03T10:01:11.563Z,28.41
2016-09-03T10:02:11.593Z,28.39
2016-09-03T10:03:11.640Z,28.49
2016-09-03T10:04:11.652Z,28.52
2016-09-03T10:05:11.677Z,28.52
2016-09-03T10:06:11.708Z,28.63
2016-09-03T10:07:11.740Z,28.76
2016-09-03T10:08:11.816Z,28.74
2016-09-03T10:09:11.792Z,28.75
2016-09-03T10:10:11.821Z,28.85
2016-09-03T10:11:11.853Z,28.86
2016-09-03T10:12:11.887Z,28.93
2016-09-03T10:13:12.613Z,28.94
2016-09-03T10:14:11.936Z,29.01
2016-09-03T10:15:12.017Z,29.05
2016-09-03T10:16:11.995Z,29.08
2016-09-03T10:17:12.031Z,29.13
2016-09-03T10:18:12.057Z,29.31
2016-09-03T10:19:12.084Z,29.19
2016-09-03T10:20:12.114Z,29.34
2016-09-03T10:21:12.153Z,29.34
2016-09-03T10:22:12.387Z,29.44
2016-09-03T10:23:12.207Z,29.49
2016-09-03T10:24:12.228Z,29.49
2016-09-03T10:25:12.262Z,29.53
2016-09-03T10:26:12.303Z,29.51
2016-09-03T10:27:12.319Z,29.51
2016-09-03T10:28:12.347Z,29.53
2016-09-03T10:29:12.380Z,29.6
2016-09-03T10:30:12.483Z,29.59
2016-09-03T10:31:12.441Z,29.56
2016-09-03T10:32:12.466Z,29.56
2016-09-03T10:33:12.501Z,29.6
2016-09-03T10:34:12.532Z,29.73
2016-09-03T10:35:12.555Z,29.68
2016-09-03T10:36:12.589Z,29.69
2016-09-03T10:37:12.615Z,29.69
2016-09-03T10:38:12.643Z,29.76
2016-09-03T10:39:12.726Z,29.68
2016-09-03T10:40:12.704Z,29.79
2016-09-03T10:41:12.736Z,29.84
2016-09-03T10:42:12.766Z,29.87
2016-09-03T10:43:12.795Z,29.86
2016-09-03T10:44:12.828Z,29.9
2016-09-03T10:45:12.857Z,30.02
2016-09-03T10:46:12.883Z,29.91
2016-09-03T10:47:12.927Z,29.95
2016-09-03T10:48:12.960Z,30.08
2016-09-03T10:49:12.973Z,30.05
2016-09-03T10:50:13.005Z,30.09
2016-09-03T10:51:13.041Z,30.09
2016-09-03T10:52:13.065Z,30.15
2016-09-03T10:53:13.102Z,30.15
2016-09-03T10:54:13.126Z,30.21
2016-09-03T10:55:13.158Z,30.18
2016-09-03T10:56:13.186Z,30.31
2016-09-03T10:57:13.265Z,30.3
2016-09-03T10:58:13.254Z,30.31
2016-09-03T10:59:13.277Z,30.32
2016-09-03T11:00:13.305Z,30.4
2016-09-03T11:01:13.344Z,30.48
2016-09-03T11:02:13.366Z,30.47
2016-09-03T11:03:13.402Z,30.48
2016-09-03T11:04:13.428Z,30.5
2016-09-03T11:05:13.468Z,30.53
2016-09-03T11:06:13.488Z,30.51
2016-09-03T11:07:13.519Z,30.69
2016-09-03T11:08:13.551Z,30.68
2016-09-03T11:09:13.579Z,30.7
2016-09-03T11:10:13.617Z,30.78
2016-09-03T11:11:13.653Z,30.72
2016-09-03T11:12:13.727Z,30.81
2016-09-03T11:13:13.706Z,30.84
2016-09-03T11:14:13.787Z,30.91
2016-09-03T11:15:13.764Z,30.97
2016-09-03T11:16:13.796Z,31.12
2016-09-03T11:17:13.839Z,31
2016-09-03T11:18:13.861Z,31.09
2016-09-03T11:19:13.891Z,31.12
2016-09-03T11:20:13.919Z,31.1
2016-09-03T11:21:13.957Z,31.22
2016-09-03T11:22:13.983Z,31.27
2016-09-03T11:23:14.718Z,31.28
2016-09-03T11:24:14.042Z,31.36
2016-09-03T11:25:14.083Z,31.37
2016-09-03T11:26:14.175Z,31.36
2016-09-03T11:27:14.136Z,31.36
2016-09-03T11:28:14.163Z,31.47
2016-09-03T11:29:14.200Z,31.43
2016-09-03T11:30:14.229Z,31.51
2016-09-03T11:31:14.261Z,31.55
2016-09-03T11:32:14.994Z,31.56
2016-09-03T11:33:14.322Z,31.58
2016-09-03T11:34:14.353Z,31.55
2016-09-03T11:35:14.387Z,31.69
2016-09-03T11:36:14.417Z,31.66
2016-09-03T11:37:14.501Z,31.71
2016-09-03T11:38:14.482Z,31.7
2016-09-03T11:39:14.506Z,31.85
2016-09-03T11:40:14.538Z,31.9
2016-09-03T11:41:14.586Z,31.85
2016-09-03T11:42:14.604Z,31.89
2016-09-03T11:43:14.640Z,31.96
2016-09-03T11:44:14.666Z,31.99
2016-09-03T11:45:14.695Z,31.96
2016-09-03T11:46:14.727Z,32.01
2016-09-03T11:47:14.764Z,32.04
2016-09-03T11:48:14.795Z,32.16
2016-09-03T11:49:14.825Z,32.16
2016-09-03T11:50:14.857Z,32.18
2016-09-03T11:51:14.888Z,32.19
2016-09-03T11:52:14.923Z,32.27
2016-09-03T11:53:14.950Z,32.33
2016-09-03T11:54:14.993Z,32.31
2016-09-03T11:55:15.016Z,32.34
2016-09-03T11:56:15.046Z,32.45
2016-09-03T11:57:15.081Z,32.43
2016-09-03T11:58:15.107Z,32.48
2016-09-03T11:59:15.145Z,32.51
2016-09-03T12:00:15.170Z,32.48
2016-09-03T12:01:15.204Z,32.63
2016-09-03T12:02:15.237Z,32.65
2016-09-03T12:03:15.269Z,32.59
2016-09-03T12:04:15.303Z,32.71
2016-09-03T12:05:15.331Z,32.7
2016-09-03T12:06:15.366Z,32.73
2016-09-03T12:07:15.398Z,32.82
2016-09-03T12:08:15.426Z,32.77
2016-09-03T12:09:15.461Z,32.83
2016-09-03T12:10:15.491Z,32.89
2016-09-03T12:11:15.522Z,32.96
2016-09-03T12:12:15.559Z,32.93
2016-09-03T12:13:15.590Z,32.96
2016-09-03T12:14:15.623Z,33.04
2016-09-03T12:15:15.655Z,32.97
2016-09-03T12:16:15.682Z,32.89
2016-09-03T12:17:15.720Z,33.04
2016-09-03T12:18:15.761Z,33.02
2016-09-03T12:19:15.784Z,33.05
2016-09-03T12:20:15.818Z,33
2016-09-03T12:21:15.856Z,32.92
2016-09-03T12:22:15.880Z,33.02
2016-09-03T12:23:15.920Z,33
2016-09-03T12:24:15.940Z,33
2016-09-03T12:25:16.691Z,32.97
2016-09-03T12:26:16.009Z,33.01
2016-09-03T12:27:16.049Z,33
2016-09-03T12:28:16.075Z,33.01
2016-09-03T12:29:16.108Z,32.97
2016-09-03T12:30:16.142Z,32.95
2016-09-03T12:31:16.177Z,32.96
2016-09-03T12:32:16.218Z,32.92
2016-09-03T12:33:16.244Z,32.89
2016-09-03T12:34:16.272Z,32.8
2016-09-03T12:35:16.305Z,32.83
2016-09-03T12:36:16.336Z,32.8
2016-09-03T12:37:16.368Z,32.89
2016-09-03T12:38:16.400Z,32.82
2016-09-03T12:39:16.440Z,32.78
2016-09-03T12:40:16.470Z,32.85
2016-09-03T12:41:17.210Z,32.71
2016-09-03T12:42:16.529Z,32.78
2016-09-03T12:43:16.576Z,32.71
2016-09-03T12:44:16.597Z,32.8
2016-09-03T12:45:16.630Z,32.77
2016-09-03T12:46:16.663Z,32.85
2016-09-03T12:47:16.696Z,32.82
2016-09-03T12:48:16.737Z,32.83
2016-09-03T12:49:16.758Z,32.89
2016-09-03T12:50:16.791Z,32.86
2016-09-03T12:51:16.824Z,32.92
2016-09-03T12:52:16.866Z,32.85
2016-09-03T12:53:16.889Z,32.85
2016-09-03T12:54:16.925Z,32.93
2016-09-03T12:55:16.964Z,32.9
2016-09-03T12:56:16.989Z,32.92
2016-09-03T12:57:17.023Z,33.01